Time;durP1;ratioP1;P1;durP2;ratioP2;P2;SDS_P1;SDS_P2;PMS_P1;PMS_P2;Temp;Humidity;BMP_temperature;BMP_pressure;BME280_temperature;BME280_humidity;BME280_pressure;Samples;Min_cycle;Max_cycle;Signal;HPM_P1;HPM_P2
2022/03/31 00:00:44;;;;;;;16.53;10.87;;;5.70;99.90;;;;;;5056553;28;20151;-64
2022/03/31 00:03:13;;;;;;;14.33;10.70;;;5.70;99.90;;;;;;5056899;28;20194;-63
2022/03/31 00:05:39;;;;;;;15.77;10.57;;;5.70;99.90;;;;;;5056198;28;20608;-64
2022/03/31 00:08:16;;;;;;;16.10;10.13;;;5.70;99.90;;;;;;5056235;28;20694;-63
2022/03/31 00:10:53;;;;;;;15.63;11.03;;;5.70;99.90;;;;;;5056295;28;20546;-64
2022/03/31 00:13:22;;;;;;;13.63;10.57;;;5.70;99.90;;;;;;5056445;28;20158;-64
2022/03/31 00:15:48;;;;;;;14.90;10.40;;;5.70;99.90;;;;;;5056276;28;20675;-62
2022/03/31 00:18:16;;;;;;;17.47;10.63;;;5.70;99.90;;;;;;5056163;28;20170;-64
2022/03/31 00:20:42;;;;;;;16.43;10.03;;;5.70;99.90;;;;;;5055932;28;20177;-63
2022/03/31 00:23:08;;;;;;;17.73;11.03;;;5.70;99.90;;;;;;5056380;28;20253;-64
2022/03/31 00:25:33;;;;;;;17.37;11.20;;;5.70;99.90;;;;;;5056107;28;20166;-63
2022/03/31 00:28:00;;;;;;;15.40;11.30;;;5.70;99.90;;;;;;5064655;28;20198;-64
2022/03/31 00:30:26;;;;;;;15.00;10.47;;;5.70;99.90;;;;;;5056069;28;20235;-63
2022/03/31 00:32:52;;;;;;;15.67;10.83;;;5.70;99.90;;;;;;5056602;28;20654;-63
2022/03/31 00:35:18;;;;;;;17.20;10.87;;;5.60;99.90;;;;;;5055734;28;20199;-63
2022/03/31 00:37:45;;;;;;;18.07;11.07;;;5.60;99.90;;;;;;5058432;28;20202;-63
2022/03/31 00:40:15;;;;;;;17.03;10.93;;;5.60;99.90;;;;;;5057947;28;20174;-63
2022/03/31 00:42:42;;;;;;;14.57;10.27;;;5.70;99.90;;;;;;5040843;28;20237;-64
2022/03/31 00:45:17;;;;;;;15.90;10.47;;;5.70;99.90;;;;;;5057624;28;20197;-63
2022/03/31 00:47:43;;;;;;;12.63;10.43;;;5.70;99.90;;;;;;5057139;28;20193;-63
2022/03/31 00:50:11;;;;;;;15.23;11.37;;;5.70;99.90;;;;;;5056553;28;20178;-64
2022/03/31 00:52:38;;;;;;;13.43;11.23;;;5.70;99.90;;;;;;5056803;28;20171;-64
2022/03/31 00:55:05;;;;;;;16.87;10.50;;;5.70;99.90;;;;;;5055669;28;20202;-63
2022/03/31 00:57:33;;;;;;;13.43;9.87;;;5.70;99.90;;;;;;5064574;28;20230;-64
2022/03/31 00:59:59;;;;;;;15.60;10.63;;;5.70;99.90;;;;;;5055522;28;20174;-63
2022/03/31 01:02:32;;;;;;;16.10;10.47;;;5.70;99.90;;;;;;5055585;28;20545;-64
2022/03/31 01:05:01;;;;;;;14.17;10.90;;;5.70;99.90;;;;;;5055154;28;20174;-64
2022/03/31 01:07:27;;;;;;;17.00;11.83;;;5.80;99.90;;;;;;5055697;28;20569;-63
2022/03/31 01:09:59;;;;;;;18.80;11.50;;;5.80;99.90;;;;;;5055290;28;20556;-63
2022/03/31 01:12:25;;;;;;;14.00;10.57;;;5.80;99.90;;;;;;5056137;28;20527;-63
2022/03/31 01:15:17;;;;;;;17.87;12.00;;;5.80;99.90;;;;;;5055182;28;20281;-63
2022/03/31 01:17:45;;;;;;;16.40;11.00;;;5.80;99.90;;;;;;5055244;28;20197;-63
2022/03/31 01:20:16;;;;;;;14.80;11.37;;;5.80;99.90;;;;;;5054941;28;20170;-65
2022/03/31 01:22:43;;;;;;;14.37;10.87;;;5.80;99.90;;;;;;5055196;28;20561;-63
2022/03/31 01:25:10;;;;;;;18.17;11.17;;;5.80;99.90;;;;;;5055297;28;20174;-63
2022/03/31 01:27:41;;;;;;;12.93;10.97;;;5.70;99.90;;;;;;5063769;28;20667;-63
2022/03/31 01:30:08;;;;;;;15.80;11.87;;;5.70;99.90;;;;;;5053667;28;20175;-63
2022/03/31 01:32:34;;;;;;;18.73;12.00;;;5.70;99.90;;;;;;5055038;28;20178;-63
2022/03/31 01:35:00;;;;;;;21.73;12.70;;;5.70;99.90;;;;;;5054589;28;20198;-64
2022/03/31 01:37:25;;;;;;;18.13;12.53;;;5.60;99.90;;;;;;5053356;28;20194;-64
2022/03/31 01:39:51;;;;;;;18.57;12.40;;;5.60;99.90;;;;;;5054643;28;20198;-64
2022/03/31 01:42:17;;;;;;;16.60;12.43;;;5.60;99.90;;;;;;5055038;28;20178;-64
2022/03/31 01:44:43;;;;;;;17.10;12.77;;;5.50;99.90;;;;;;5054755;28;20225;-63
2022/03/31 01:47:09;;;;;;;16.33;12.03;;;5.50;99.90;;;;;;5054431;28;20195;-63
2022/03/31 01:49:37;;;;;;;17.90;12.10;;;5.50;99.90;;;;;;5054180;28;20175;-63
2022/03/31 01:52:04;;;;;;;17.03;11.80;;;5.40;99.90;;;;;;5054412;28;20162;-64
2022/03/31 01:54:30;;;;;;;17.90;12.80;;;5.40;99.90;;;;;;5054469;28;20226;-63
2022/03/31 01:56:56;;;;;;;19.40;13.00;;;5.40;99.90;;;;;;5063001;28;20280;-63
2022/03/31 01:59:22;;;;;;;16.77;12.27;;;5.40;99.90;;;;;;5054444;28;20170;-63
2022/03/31 02:01:48;;;;;;;17.03;12.87;;;5.40;99.90;;;;;;5054292;28;20166;-63
2022/03/31 02:04:15;;;;;;;20.87;13.40;;;5.40;99.90;;;;;;5054428;28;20640;-63
2022/03/31 02:06:41;;;;;;;24.27;13.80;;;5.40;99.90;;;;;;5054457;28;20187;-64
2022/03/31 02:09:07;;;;;;;24.23;14.70;;;5.40;99.90;;;;;;5054513;28;20185;-63
2022/03/31 02:11:34;;;;;;;22.50;14.43;;;5.40;99.90;;;;;;5054005;28;20194;-63
2022/03/31 02:14:00;;;;;;;23.67;14.97;;;5.30;99.90;;;;;;5054166;28;20202;-63
2022/03/31 02:16:25;;;;;;;18.30;13.37;;;5.30;99.90;;;;;;5053974;28;20269;-63
2022/03/31 02:18:51;;;;;;;19.27;13.77;;;5.30;99.90;;;;;;5054376;28;20177;-61
2022/03/31 02:21:17;;;;;;;21.97;13.80;;;5.30;99.90;;;;;;5053962;28;20174;-63
2022/03/31 02:23:43;;;;;;;20.47;14.90;;;5.30;99.90;;;;;;5054330;28;20151;-63
2022/03/31 02:26:08;;;;;;;18.97;14.27;;;5.30;99.90;;;;;;5058558;28;20212;-64
2022/03/31 02:28:34;;;;;;;21.57;14.40;;;5.20;99.90;;;;;;5057665;28;20182;-63
2022/03/31 02:31:00;;;;;;;25.73;15.17;;;5.20;99.90;;;;;;5053772;28;20542;-63
2022/03/31 02:33:26;;;;;;;22.60;14.67;;;5.30;99.90;;;;;;5053722;28;20584;-63
2022/03/31 02:35:52;;;;;;;23.40;14.23;;;5.20;99.90;;;;;;5053495;28;20190;-63
2022/03/31 02:38:18;;;;;;;21.40;14.63;;;5.20;99.90;;;;;;5053863;28;20166;-64
2022/03/31 02:40:44;;;;;;;22.53;15.37;;;5.20;99.90;;;;;;5053547;28;20217;-64
2022/03/31 02:43:12;;;;;;;27.73;15.30;;;5.20;99.90;;;;;;5053591;28;20194;-64
2022/03/31 02:45:37;;;;;;;25.77;15.67;;;5.20;99.90;;;;;;5054023;28;20698;-64
2022/03/31 02:48:04;;;;;;;24.00;16.10;;;5.20;99.90;;;;;;5053753;28;20225;-64
2022/03/31 02:50:29;;;;;;;23.00;15.30;;;5.20;99.90;;;;;;5053156;28;20546;-63
2022/03/31 02:55:39;;;;;;;27.90;16.43;;;5.20;99.90;;;;;;5054288;28;20197;-64
2022/03/31 02:58:05;;;;;;;22.30;15.10;;;5.10;99.90;;;;;;5061257;28;20198;-63
2022/03/31 03:00:36;;;;;;;26.47;16.20;;;5.10;99.90;;;;;;5053704;28;20268;-64
2022/03/31 03:03:03;;;;;;;23.50;15.87;;;5.10;99.90;;;;;;5053651;28;20154;-64
2022/03/31 03:05:29;;;;;;;23.60;16.03;;;5.10;99.90;;;;;;5053708;28;20205;-64
2022/03/31 03:07:55;;;;;;;23.47;15.53;;;5.10;99.90;;;;;;5057546;28;20324;-63
2022/03/31 03:10:21;;;;;;;25.80;16.70;;;5.10;99.90;;;;;;5056170;28;20667;-63
2022/03/31 03:12:47;;;;;;;24.17;17.83;;;5.10;99.90;;;;;;5057448;28;20190;-64
2022/03/31 03:15:13;;;;;;;23.60;16.87;;;5.10;99.90;;;;;;5057640;28;20209;-64
2022/03/31 03:17:43;;;;;;;22.23;16.00;;;5.10;99.90;;;;;;5057317;28;20200;-64
2022/03/31 03:20:13;;;;;;;25.63;15.80;;;5.00;99.90;;;;;;5055749;28;20177;-63
2022/03/31 03:22:57;;;;;;;22.73;16.10;;;5.00;99.90;;;;;;5057287;28;20174;-64
2022/03/31 03:25:23;;;;;;;22.63;14.57;;;5.00;99.90;;;;;;5057327;28;20159;-63
2022/03/31 03:27:49;;;;;;;23.63;15.63;;;5.00;99.90;;;;;;5065820;28;20573;-67
2022/03/31 03:30:20;;;;;;;24.07;16.30;;;5.00;99.90;;;;;;5057210;28;20182;-64
2022/03/31 03:32:46;;;;;;;19.70;14.53;;;5.00;99.90;;;;;;5057808;28;20213;-63
2022/03/31 03:35:13;;;;;;;24.63;16.30;;;5.00;99.90;;;;;;5056860;28;20214;-63
2022/03/31 03:37:41;;;;;;;22.73;15.40;;;5.00;99.90;;;;;;5057038;28;20206;-64
2022/03/31 03:40:09;;;;;;;24.40;15.30;;;5.00;99.90;;;;;;5055744;28;20175;-63
2022/03/31 03:42:38;;;;;;;22.70;17.03;;;5.00;99.90;;;;;;5057227;28;20212;-63
2022/03/31 03:45:05;;;;;;;22.27;15.47;;;5.00;99.90;;;;;;5056822;28;20175;-63
2022/03/31 03:47:32;;;;;;;24.73;16.27;;;5.00;99.90;;;;;;5055573;28;20195;-64
2022/03/31 03:49:58;;;;;;;24.90;16.10;;;5.00;99.90;;;;;;5055399;28;20182;-64
2022/03/31 03:52:23;;;;;;;24.93;15.37;;;5.00;99.90;;;;;;5056941;28;20181;-63
2022/03/31 03:54:50;;;;;;;21.33;15.43;;;5.00;99.90;;;;;;5056697;28;20198;-63
2022/03/31 03:57:16;;;;;;;25.87;16.57;;;4.90;99.90;;;;;;5065325;28;20615;-64
2022/03/31 03:59:42;;;;;;;21.30;16.23;;;5.00;99.90;;;;;;5056439;28;20189;-63
2022/03/31 04:02:07;;;;;;;23.13;16.77;;;5.00;99.90;;;;;;5056569;28;20531;-63
2022/03/31 04:04:33;;;;;;;22.27;17.03;;;4.90;99.90;;;;;;5056610;28;20250;-63
2022/03/31 04:06:59;;;;;;;25.17;16.50;;;4.90;99.90;;;;;;5056809;28;20709;-63
2022/03/31 04:09:25;;;;;;;26.47;17.13;;;4.90;99.90;;;;;;5056295;28;20262;-63
2022/03/31 04:11:51;;;;;;;24.47;17.77;;;4.80;99.90;;;;;;5056198;28;20190;-63
2022/03/31 04:14:17;;;;;;;23.87;16.80;;;4.90;99.90;;;;;;5055995;28;20205;-63
2022/03/31 04:16:43;;;;;;;22.03;16.27;;;4.80;99.90;;;;;;5055478;28;20240;-63
2022/03/31 04:19:09;;;;;;;24.77;16.47;;;4.80;99.90;;;;;;5056161;28;20170;-63
2022/03/31 04:21:36;;;;;;;23.97;17.33;;;4.80;99.90;;;;;;5055668;28;20206;-63
2022/03/31 04:24:03;;;;;;;27.77;17.37;;;4.80;99.90;;;;;;5055858;28;20179;-63
2022/03/31 04:26:29;;;;;;;23.47;16.97;;;4.80;99.90;;;;;;5063184;28;20197;-63
2022/03/31 04:28:55;;;;;;;32.00;18.03;;;4.80;99.90;;;;;;5056736;28;20195;-63
2022/03/31 04:31:21;;;;;;;27.00;18.00;;;4.80;99.90;;;;;;5055657;28;20255;-63
2022/03/31 04:33:47;;;;;;;27.80;17.83;;;4.80;99.90;;;;;;5055558;28;20194;-62
2022/03/31 04:36:12;;;;;;;26.50;17.50;;;4.80;99.90;;;;;;5055307;28;20194;-63
2022/03/31 04:38:38;;;;;;;25.50;17.07;;;4.80;99.90;;;;;;5055882;28;20232;-63
2022/03/31 04:41:04;;;;;;;23.87;17.20;;;4.70;99.90;;;;;;5055524;28;20174;-63
2022/03/31 04:43:30;;;;;;;25.90;16.97;;;4.70;99.90;;;;;;5055470;28;20649;-63
2022/03/31 04:45:55;;;;;;;23.80;18.00;;;4.70;99.90;;;;;;5055294;28;20181;-63
2022/03/31 04:48:21;;;;;;;27.13;17.97;;;4.70;99.90;;;;;;5055345;28;20639;-62
2022/03/31 04:50:47;;;;;;;26.27;18.43;;;4.70;99.90;;;;;;5055249;28;20271;-62
2022/03/31 04:53:14;;;;;;;25.47;18.57;;;4.70;99.90;;;;;;5055729;28;20174;-63
2022/03/31 04:55:41;;;;;;;24.07;17.93;;;4.70;99.90;;;;;;5055930;28;20289;-63
2022/03/31 04:58:06;;;;;;;25.60;18.30;;;4.80;99.90;;;;;;5063195;28;20222;-63
2022/03/31 05:00:32;;;;;;;28.37;19.27;;;4.80;99.90;;;;;;5055654;28;20549;-63
2022/03/31 05:02:59;;;;;;;29.87;18.37;;;4.70;99.90;;;;;;5055221;28;20171;-64
2022/03/31 05:05:25;;;;;;;27.77;18.93;;;4.70;99.90;;;;;;5055199;28;20258;-63
2022/03/31 05:07:51;;;;;;;27.37;18.80;;;4.70;99.90;;;;;;5055110;28;20198;-63
2022/03/31 05:10:17;;;;;;;29.43;19.27;;;4.70;99.90;;;;;;5054995;28;20270;-63
2022/03/31 05:12:43;;;;;;;24.33;18.37;;;4.70;99.90;;;;;;5055099;28;20181;-63
2022/03/31 05:15:09;;;;;;;29.17;18.73;;;4.70;99.90;;;;;;5055249;28;20198;-63
2022/03/31 05:17:35;;;;;;;26.90;18.33;;;4.60;99.90;;;;;;5054916;28;20194;-64
2022/03/31 05:20:10;;;;;;;28.47;19.47;;;4.60;99.90;;;;;;5055251;28;20170;-63
2022/03/31 05:22:38;;;;;;;26.17;19.23;;;4.60;99.90;;;;;;5054966;28;20162;-63
2022/03/31 05:25:07;;;;;;;26.80;18.63;;;4.60;99.90;;;;;;5055166;28;20197;-62
2022/03/31 05:27:43;;;;;;;24.53;18.17;;;4.60;99.90;;;;;;5063346;28;20202;-62
2022/03/31 05:30:13;;;;;;;32.07;20.70;;;4.70;99.90;;;;;;5054542;28;20150;-62
2022/03/31 05:32:40;;;;;;;28.10;20.83;;;4.70;99.90;;;;;;5055043;28;20185;-63
2022/03/31 05:35:09;;;;;;;29.83;19.90;;;4.80;99.90;;;;;;5054450;28;20205;-63
2022/03/31 05:37:35;;;;;;;26.83;19.57;;;4.80;99.90;;;;;;5054547;28;20198;-62
2022/03/31 05:40:04;;;;;;;27.97;19.60;;;4.80;99.90;;;;;;5054627;28;20165;-62
2022/03/31 05:42:32;;;;;;;30.27;19.63;;;4.80;99.90;;;;;;5054760;28;20174;-62
2022/03/31 05:44:59;;;;;;;30.20;21.43;;;4.80;99.90;;;;;;5054800;28;20224;-62
2022/03/31 05:47:25;;;;;;;29.80;21.37;;;4.80;99.90;;;;;;5054335;28;20191;-62
2022/03/31 05:49:51;;;;;;;33.50;21.20;;;4.90;99.90;;;;;;5054364;28;20206;-62
2022/03/31 05:52:17;;;;;;;33.17;22.77;;;4.80;99.90;;;;;;5054931;28;20209;-62
2022/03/31 05:54:43;;;;;;;36.87;22.43;;;4.80;99.90;;;;;;5054215;28;20201;-61
2022/03/31 05:57:09;;;;;;;33.47;23.23;;;4.80;99.90;;;;;;5062831;28;20222;-62
2022/03/31 05:59:35;;;;;;;35.23;23.43;;;4.80;99.90;;;;;;5054456;28;20221;-63
2022/03/31 06:02:01;;;;;;;36.23;22.47;;;4.90;99.90;;;;;;5054145;28;20167;-62
2022/03/31 06:04:28;;;;;;;36.60;22.00;;;4.90;99.90;;;;;;5053996;28;20669;-62
2022/03/31 06:06:54;;;;;;;37.03;22.93;;;4.90;99.90;;;;;;5053673;28;20209;-62
2022/03/31 06:09:20;;;;;;;28.97;22.17;;;4.80;99.90;;;;;;5054010;28;20174;-62
2022/03/31 06:11:45;;;;;;;35.30;21.67;;;4.90;99.90;;;;;;5054326;28;20178;-62
2022/03/31 06:14:12;;;;;;;31.40;22.00;;;4.90;99.90;;;;;;5054091;28;20269;-63
2022/03/31 06:16:39;;;;;;;31.77;22.27;;;4.90;99.90;;;;;;5054070;28;20265;-62
2022/03/31 06:19:08;;;;;;;29.13;21.27;;;5.00;99.90;;;;;;5054163;28;20182;-63
2022/03/31 06:21:34;;;;;;;32.97;22.27;;;5.00;99.90;;;;;;5052374;28;20643;-62
2022/03/31 06:24:00;;;;;;;37.70;23.30;;;5.00;99.90;;;;;;5054069;28;20170;-62
2022/03/31 06:26:27;;;;;;;35.17;22.90;;;5.00;99.90;;;;;;5060704;28;20674;-62
2022/03/31 06:28:53;;;;;;;37.97;23.07;;;5.00;99.90;;;;;;5053983;28;20718;-62
2022/03/31 06:31:21;;;;;;;38.03;22.73;;;5.10;99.90;;;;;;5053872;28;20198;-63
2022/03/31 06:33:47;;;;;;;30.37;21.63;;;5.10;99.90;;;;;;5053947;28;20167;-63
2022/03/31 06:36:12;;;;;;;32.53;22.07;;;5.20;99.90;;;;;;5053855;28;20214;-63
2022/03/31 06:38:38;;;;;;;37.50;22.70;;;5.20;99.90;;;;;;5058348;28;20178;-62
2022/03/31 06:41:06;;;;;;;34.43;21.97;;;5.30;99.90;;;;;;5061549;28;20253;-62
2022/03/31 06:43:33;;;;;;;38.17;22.53;;;5.30;99.90;;;;;;5057008;28;20232;-62
2022/03/31 06:45:59;;;;;;;32.50;20.93;;;5.30;99.90;;;;;;5055252;28;20654;-62
2022/03/31 06:48:26;;;;;;;34.43;20.70;;;5.30;99.90;;;;;;5054159;28;20217;-63
2022/03/31 06:50:52;;;;;;;35.13;20.60;;;5.30;99.90;;;;;;5052892;28;20557;-63
2022/03/31 06:53:18;;;;;;;36.73;20.50;;;5.30;99.90;;;;;;5053556;28;20178;-63
2022/03/31 06:55:45;;;;;;;31.47;18.87;;;5.30;99.90;;;;;;5053383;28;20233;-63
2022/03/31 06:58:10;;;;;;;32.00;18.77;;;5.30;99.90;;;;;;5060499;28;20206;-63
2022/03/31 07:00:36;;;;;;;32.73;19.83;;;5.40;99.90;;;;;;5053368;28;20631;-63
2022/03/31 07:03:02;;;;;;;28.67;18.63;;;5.40;99.90;;;;;;5053282;28;20178;-63
2022/03/31 07:05:28;;;;;;;29.97;18.40;;;5.50;99.90;;;;;;5053464;28;20178;-63
2022/03/31 07:07:54;;;;;;;27.80;18.83;;;5.50;99.90;;;;;;5053212;28;20202;-63
2022/03/31 07:10:21;;;;;;;35.47;19.30;;;5.50;99.90;;;;;;5053106;28;20190;-63
2022/03/31 07:12:48;;;;;;;34.73;23.63;;;5.50;99.90;;;;;;5053237;28;20175;-63
2022/03/31 07:15:13;;;;;;;30.50;19.37;;;5.50;99.90;;;;;;5053643;28;20209;-64
2022/03/31 07:17:39;;;;;;;32.37;20.40;;;5.50;99.90;;;;;;5051823;28;20270;-63
2022/03/31 07:20:06;;;;;;;30.47;18.17;;;5.60;99.90;;;;;;5053590;28;20209;-63
2022/03/31 07:22:32;;;;;;;34.00;18.20;;;5.60;99.90;;;;;;5053381;28;20605;-63
2022/03/31 07:24:58;;;;;;;35.93;18.97;;;5.60;99.90;;;;;;5052604;28;20679;-64
2022/03/31 07:27:24;;;;;;;28.87;17.67;;;5.70;99.90;;;;;;5061829;28;20210;-63
2022/03/31 07:29:50;;;;;;;29.27;17.53;;;5.70;99.90;;;;;;5053295;28;20174;-63
2022/03/31 07:32:16;;;;;;;26.87;17.53;;;5.60;99.90;;;;;;5053088;28;20269;-64
2022/03/31 07:34:42;;;;;;;28.07;17.77;;;5.70;99.90;;;;;;5052898;28;20198;-63
2022/03/31 07:37:08;;;;;;;28.60;17.33;;;5.70;99.90;;;;;;5051444;28;20199;-63
2022/03/31 07:39:35;;;;;;;29.07;17.70;;;5.80;99.90;;;;;;5052857;28;20232;-63
2022/03/31 07:42:02;;;;;;;23.30;16.70;;;5.80;99.90;;;;;;5053177;28;20209;-63
2022/03/31 07:44:28;;;;;;;31.70;18.67;;;5.80;99.90;;;;;;5053004;28;20185;-63
2022/03/31 07:46:54;;;;;;;30.43;18.67;;;5.80;99.90;;;;;;5052871;28;20568;-63
2022/03/31 07:49:20;;;;;;;28.30;17.47;;;5.80;99.90;;;;;;5053318;28;20170;-64
2022/03/31 07:51:46;;;;;;;28.87;18.37;;;5.90;99.90;;;;;;5053719;28;20197;-63
2022/03/31 07:54:11;;;;;;;34.87;21.00;;;6.00;99.90;;;;;;5056546;28;20261;-63
2022/03/31 07:56:37;;;;;;;32.50;19.73;;;6.10;99.90;;;;;;5065160;28;20197;-63
2022/03/31 07:59:03;;;;;;;35.67;20.10;;;6.10;99.90;;;;;;5056710;28;20186;-63
2022/03/31 08:01:28;;;;;;;34.20;20.37;;;6.20;99.90;;;;;;5057148;28;20175;-63
2022/03/31 08:03:54;;;;;;;30.77;20.97;;;6.20;99.90;;;;;;5057103;28;20171;-63
2022/03/31 08:06:21;;;;;;;29.13;19.17;;;6.30;99.90;;;;;;5056214;28;20195;-63
2022/03/31 08:08:46;;;;;;;30.97;19.63;;;6.40;99.90;;;;;;5056926;28;20175;-63
2022/03/31 08:11:12;;;;;;;29.67;18.57;;;6.40;99.90;;;;;;5056370;28;20626;-64
2022/03/31 08:13:38;;;;;;;27.23;17.23;;;6.40;99.90;;;;;;5056552;28;20178;-64
2022/03/31 08:16:04;;;;;;;26.53;17.07;;;6.40;99.90;;;;;;5056355;28;20198;-63
2022/03/31 08:18:31;;;;;;;22.73;16.67;;;6.50;99.90;;;;;;5056155;28;20179;-63
2022/03/31 08:20:58;;;;;;;31.03;16.80;;;6.50;99.90;;;;;;5055904;28;20166;-63
2022/03/31 08:23:25;;;;;;;25.53;16.60;;;6.60;99.90;;;;;;5056609;28;20175;-63
2022/03/31 08:25:51;;;;;;;29.20;17.83;;;6.50;99.90;;;;;;5058163;28;20635;-63
2022/03/31 08:28:17;;;;;;;28.33;16.27;;;6.60;99.90;;;;;;5062355;28;20639;-63
2022/03/31 08:30:43;;;;;;;25.70;16.07;;;6.50;99.90;;;;;;5056027;28;20174;-63
2022/03/31 08:33:09;;;;;;;29.33;15.47;;;6.50;99.90;;;;;;5056109;28;20175;-63
2022/03/31 08:35:35;;;;;;;26.73;14.97;;;6.50;99.90;;;;;;5055785;28;20198;-65
2022/03/31 08:38:00;;;;;;;22.77;15.47;;;6.50;99.90;;;;;;5056320;28;20197;-63
2022/03/31 08:40:26;;;;;;;27.63;16.00;;;6.70;99.90;;;;;;5056182;28;20635;-64
2022/03/31 08:42:54;;;;;;;25.13;16.90;;;6.80;99.90;;;;;;5055691;28;20206;-64
2022/03/31 08:45:20;;;;;;;24.57;16.70;;;6.90;99.90;;;;;;5055971;28;20181;-63
2022/03/31 08:47:49;;;;;;;30.50;18.17;;;7.10;99.90;;;;;;5055691;28;20571;-64
2022/03/31 08:50:15;;;;;;;30.73;18.00;;;7.20;99.90;;;;;;5055651;28;20182;-68
2022/03/31 08:52:43;;;;;;;26.13;17.20;;;7.20;99.90;;;;;;5055551;28;20175;-63
2022/03/31 08:55:10;;;;;;;28.80;16.73;;;7.20;99.90;;;;;;5055513;28;20205;-63
2022/03/31 08:57:44;;;;;;;26.50;16.40;;;7.30;99.90;;;;;;5064173;28;20198;-63
2022/03/31 09:00:12;;;;;;;28.23;16.97;;;7.30;99.90;;;;;;5055765;28;20158;-63
2022/03/31 09:02:39;;;;;;;31.13;18.37;;;7.30;99.90;;;;;;5055049;28;20179;-63
2022/03/31 09:05:09;;;;;;;30.63;18.63;;;7.30;99.90;;;;;;5054833;28;20174;-63
2022/03/31 09:07:36;;;;;;;39.07;20.43;;;7.20;99.90;;;;;;5055556;28;20202;-63
2022/03/31 09:10:02;;;;;;;30.13;17.97;;;7.30;99.90;;;;;;5055240;28;20226;-63
2022/03/31 09:12:38;;;;;;;36.67;18.83;;;7.20;99.90;;;;;;5055482;28;20213;-63
2022/03/31 09:15:12;;;;;;;32.00;18.90;;;7.10;99.90;;;;;;5055393;28;20205;-63
2022/03/31 09:17:39;;;;;;;29.97;19.53;;;7.10;99.90;;;;;;5055003;28;20564;-63
2022/03/31 09:20:05;;;;;;;39.40;20.57;;;7.10;99.90;;;;;;5054958;28;20178;-63
2022/03/31 09:22:43;;;;;;;42.07;21.03;;;7.10;99.90;;;;;;5054774;28;20174;-64
2022/03/31 09:25:10;;;;;;;35.33;19.80;;;7.00;99.90;;;;;;5054925;28;20216;-63
2022/03/31 09:27:36;;;;;;;33.77;20.83;;;7.00;99.90;;;;;;5063495;28;20205;-63
2022/03/31 09:30:06;;;;;;;32.47;19.57;;;7.00;99.90;;;;;;5054877;28;20182;-63
2022/03/31 09:32:31;;;;;;;32.70;19.60;;;7.00;99.90;;;;;;5055434;28;20658;-63
2022/03/31 09:35:05;;;;;;;33.10;19.67;;;7.10;99.90;;;;;;5054611;28;20203;-63
2022/03/31 09:37:31;;;;;;;32.53;21.03;;;7.20;99.90;;;;;;5054425;28;20205;-63
2022/03/31 09:39:57;;;;;;;32.97;20.23;;;7.30;99.90;;;;;;5054641;28;20293;-63
2022/03/31 09:42:23;;;;;;;32.37;21.27;;;7.50;99.90;;;;;;5055075;28;20174;-63
2022/03/31 09:44:59;;;;;;;31.40;19.50;;;7.70;99.90;;;;;;5054548;28;20713;-63
2022/03/31 09:47:26;;;;;;;33.07;20.33;;;7.90;99.90;;;;;;5054604;28;20217;-63
2022/03/31 09:49:58;;;;;;;31.00;19.80;;;8.00;99.90;;;;;;5054555;28;20181;-63
2022/03/31 09:52:24;;;;;;;29.43;19.50;;;8.20;99.90;;;;;;5054066;28;20170;-64
2022/03/31 09:54:50;;;;;;;37.57;25.63;;;8.40;99.90;;;;;;5054292;28;20198;-63
2022/03/31 09:57:21;;;;;;;43.97;27.43;;;8.40;99.90;;;;;;5062884;28;20210;-64
2022/03/31 09:59:52;;;;;;;47.47;29.07;;;8.40;99.90;;;;;;5054225;28;20162;-63
2022/03/31 10:02:19;;;;;;;66.83;41.47;;;8.50;99.90;;;;;;5054894;28;20158;-63
2022/03/31 10:04:46;;;;;;;34.53;20.30;;;8.60;99.90;;;;;;5054201;28;20186;-63
2022/03/31 10:07:12;;;;;;;46.20;24.27;;;8.60;99.90;;;;;;5053801;28;20566;-63
2022/03/31 10:09:42;;;;;;;44.17;25.33;;;8.60;99.90;;;;;;5053901;28;20190;-63
2022/03/31 10:12:47;;;;;;;28.23;20.37;;;8.60;99.90;;;;;;5054304;28;20163;-64
2022/03/31 10:15:20;;;;;;;30.87;18.73;;;8.60;99.90;;;;;;5053320;28;20568;-63
2022/03/31 10:17:49;;;;;;;25.77;18.93;;;8.50;99.90;;;;;;5054243;28;20202;-63
2022/03/31 10:20:16;;;;;;;28.50;18.83;;;8.60;99.90;;;;;;5053885;28;20635;-63
2022/03/31 10:25:48;;;;;;;30.87;19.60;;;8.80;99.90;;;;;;5055959;28;20189;-64
2022/03/31 10:28:22;;;;;;;25.10;17.10;;;9.00;99.90;;;;;;5060558;28;20555;-63
2022/03/31 10:31:01;;;;;;;41.73;27.03;;;9.10;99.90;;;;;;5053864;28;20166;-63
2022/03/31 10:33:52;;;;;;;28.67;18.77;;;9.30;99.90;;;;;;5054252;28;20170;-63
2022/03/31 10:36:20;;;;;;;38.43;21.10;;;9.30;99.90;;;;;;5053436;28;20690;-63
2022/03/31 10:39:01;;;;;;;26.93;18.30;;;9.40;99.90;;;;;;5053607;28;20174;-63
2022/03/31 10:41:42;;;;;;;72.93;42.73;;;9.30;99.90;;;;;;5053640;28;20546;-63
2022/03/31 10:44:11;;;;;;;40.07;24.93;;;9.50;99.90;;;;;;5053622;28;20163;-64
2022/03/31 10:46:38;;;;;;;29.93;18.57;;;9.60;99.90;;;;;;5053409;28;20206;-63
2022/03/31 10:49:10;;;;;;;62.57;38.17;;;9.70;99.90;;;;;;5053426;28;20198;-63
2022/03/31 10:51:38;;;;;;;39.93;27.03;;;9.70;99.90;;;;;;5053298;28;20166;-64
2022/03/31 10:54:05;;;;;;;25.87;17.80;;;9.60;99.90;;;;;;5053411;28;20181;-63
2022/03/31 10:56:33;;;;;;;41.97;26.97;;;9.60;99.90;;;;;;5059818;28;20205;-64
2022/03/31 10:59:03;;;;;;;27.57;17.73;;;9.50;99.90;;;;;;5054032;28;20674;-64
2022/03/31 11:01:35;;;;;;;26.13;17.63;;;9.40;99.90;;;;;;5053516;28;20193;-63
2022/03/31 11:04:02;;;;;;;26.43;18.07;;;9.30;99.90;;;;;;5053549;28;20616;-64
2022/03/31 11:06:29;;;;;;;26.23;16.23;;;9.10;99.90;;;;;;5053212;28;20573;-64
2022/03/31 11:08:55;;;;;;;27.03;18.07;;;9.00;99.90;;;;;;5053583;28;20478;-64
2022/03/31 11:11:30;;;;;;;28.57;18.63;;;8.90;99.90;;;;;;5053228;28;20235;-64
2022/03/31 11:13:58;;;;;;;25.73;17.53;;;8.90;99.90;;;;;;5053804;28;20191;-63
2022/03/31 11:16:38;;;;;;;26.07;17.17;;;8.80;99.90;;;;;;5051808;28;20214;-64
2022/03/31 11:19:05;;;;;;;26.80;18.23;;;8.90;99.90;;;;;;5053269;28;20612;-63
2022/03/31 11:21:36;;;;;;;27.30;17.77;;;8.90;99.90;;;;;;5052959;28;20629;-63
2022/03/31 11:24:02;;;;;;;30.43;17.33;;;9.00;99.90;;;;;;5053015;28;20211;-64
2022/03/31 11:26:30;;;;;;;26.90;16.60;;;9.00;99.90;;;;;;5060989;28;20233;-63
2022/03/31 11:28:56;;;;;;;26.97;18.07;;;8.90;99.90;;;;;;5058293;28;20221;-64
2022/03/31 11:31:22;;;;;;;26.07;16.70;;;8.90;99.90;;;;;;5057108;28;20232;-64
2022/03/31 11:33:49;;;;;;;23.70;17.17;;;8.80;99.90;;;;;;5057016;28;20171;-64
2022/03/31 11:36:17;;;;;;;27.27;17.43;;;8.70;99.90;;;;;;5056550;28;20259;-63
2022/03/31 11:38:57;;;;;;;27.40;17.90;;;8.80;99.90;;;;;;5057050;28;20197;-63
2022/03/31 11:41:23;;;;;;;27.50;17.53;;;8.70;99.90;;;;;;5057312;28;20169;-63
2022/03/31 11:43:49;;;;;;;27.87;17.53;;;8.60;99.90;;;;;;5056972;28;20538;-63
2022/03/31 11:46:15;;;;;;;25.30;16.40;;;8.40;99.90;;;;;;5056711;28;20678;-64
2022/03/31 11:48:41;;;;;;;27.57;17.67;;;8.40;99.90;;;;;;5056770;28;20174;-64
2022/03/31 11:51:08;;;;;;;24.80;17.37;;;8.30;99.90;;;;;;5056595;28;20229;-64
2022/03/31 11:53:37;;;;;;;24.13;16.33;;;8.30;99.90;;;;;;5057157;28;20519;-63
2022/03/31 11:56:12;;;;;;;26.27;18.33;;;8.30;99.90;;;;;;5060298;28;20209;-63
2022/03/31 11:58:49;;;;;;;28.67;17.00;;;8.30;99.90;;;;;;5060098;28;20178;-63
2022/03/31 12:01:17;;;;;;;28.80;17.40;;;8.40;99.90;;;;;;5056773;28;20209;-63
2022/03/31 12:03:43;;;;;;;27.23;17.57;;;8.40;99.90;;;;;;5056589;28;20655;-63
2022/03/31 12:06:10;;;;;;;27.70;17.33;;;8.40;99.90;;;;;;5056180;28;20277;-63
2022/03/31 12:08:38;;;;;;;26.80;18.23;;;8.50;99.90;;;;;;5057118;28;20182;-64
2022/03/31 12:11:05;;;;;;;26.50;18.17;;;8.60;99.90;;;;;;5057190;28;20265;-63
2022/03/31 12:13:31;;;;;;;24.67;16.93;;;8.70;99.90;;;;;;5056443;28;20174;-63
2022/03/31 12:16:07;;;;;;;24.90;17.97;;;8.60;99.90;;;;;;5056205;28;20701;-64
2022/03/31 12:18:35;;;;;;;25.17;16.77;;;8.50;99.90;;;;;;5056556;28;20243;-63
2022/03/31 12:21:03;;;;;;;23.23;16.57;;;8.50;99.90;;;;;;5056159;28;20179;-63
2022/03/31 12:23:29;;;;;;;26.17;16.70;;;8.50;99.90;;;;;;5056144;28;20639;-64
2022/03/31 12:25:55;;;;;;;28.00;18.13;;;8.30;99.90;;;;;;5058925;28;20200;-63
2022/03/31 12:28:23;;;;;;;26.67;17.83;;;8.30;99.90;;;;;;5061785;28;20194;-64
2022/03/31 12:30:56;;;;;;;24.40;15.37;;;8.10;99.90;;;;;;5055992;28;20171;-64
2022/03/31 12:33:26;;;;;;;26.03;17.53;;;8.00;99.90;;;;;;5056253;28;20170;-63
2022/03/31 12:36:00;;;;;;;28.90;17.80;;;8.00;99.90;;;;;;5055939;28;20206;-63
2022/03/31 12:38:47;;;;;;;24.33;16.67;;;7.90;99.90;;;;;;5056427;28;20159;-64
2022/03/31 12:41:36;;;;;;;27.77;18.50;;;7.90;99.90;;;;;;5056658;28;20713;-64
2022/03/31 12:44:15;;;;;;;29.07;18.67;;;7.80;99.90;;;;;;5055031;28;20232;-63